Air Navigation Services of Czech Republic
Airport: LKTB Updated:  22.05.2019 03:00:29  UTC
 METAR LKTB 22.05. 03:00 ...
METAR LKTB 220300Z 23008KT 9999 -RA FEW016 SCT031 13/13 Q1006 NOSIG RMK REG QNH 1002=
 TAF LKTB 21.05. 23:00 ...
TAF LKTB 212300Z 2200/2306 26008KT 9999 SCT036      BECMG 2201/2203 7000 -RA SCT010 BKN023      TEMPO 2203/2209 4000 RA BKN010 OVC016      BECMG 2206/2209 31014G30KT      BECMG 2210/2212 BKN030      TEMPO 2212/2306 6000 RA BKN020=